<?xml version="1.0" encoding="UTF-8" standalone="no" ?>
<gpx xmlns="http://www.topografix.com/GPX/1/1" xmlns:xsi="http://www.w3.org/2001/XMLSchema-instance" xsi:schemaLocation="http://www.topografix.com/GPX/1/1 http://www.topografix.com/GPX/1/1/gpx.xsd" version="1.1" creator="VisuGPX - https://www.visugpx.com">
  <metadata>
    <name>CBS 2026 - 8k</name>
  </metadata>
  <wpt lat="45.95117" lon="4.74655">
    <ele>193.5</ele>
    <name><![CDATA[Ravito]]></name>
    <type><![CDATA[FOOD]]></type>
  </wpt>
  <trk>
    <name><![CDATA[CDBS 2026 - 8k]]></name>
    <trkseg>
      <trkpt lat="45.94601" lon="4.73015">
        <ele>170.82</ele>
        <time>2025-05-03T20:18:01.000Z</time>
      </trkpt>
      <trkpt lat="45.94627" lon="4.73019">
        <ele>170.63</ele>
        <time>2025-05-03T20:18:01.009Z</time>
      </trkpt>
      <trkpt lat="45.94654" lon="4.73024">
        <ele>170.72</ele>
        <time>2025-05-03T20:18:01.027Z</time>
      </trkpt>
      <trkpt lat="45.94674" lon="4.73031">
        <ele>170.84</ele>
        <time>2025-05-03T20:18:01.052Z</time>
      </trkpt>
      <trkpt lat="45.94695" lon="4.73039">
        <ele>170.78</ele>
        <time>2025-05-03T20:18:01.084Z</time>
      </trkpt>
      <trkpt lat="45.94695" lon="4.73039">
        <ele>170.68</ele>
        <time>2025-05-03T20:18:01.116Z</time>
      </trkpt>
      <trkpt lat="45.94716" lon="4.73049">
        <ele>170.42</ele>
        <time>2025-05-03T20:18:01.155Z</time>
      </trkpt>
      <trkpt lat="45.94738" lon="4.73059">
        <ele>170.04</ele>
        <time>2025-05-03T20:18:01.202Z</time>
      </trkpt>
      <trkpt lat="45.94759" lon="4.73069">
        <ele>169.77</ele>
        <time>2025-05-03T20:18:01.257Z</time>
      </trkpt>
      <trkpt lat="45.94783" lon="4.73082">
        <ele>169.63</ele>
        <time>2025-05-03T20:18:01.320Z</time>
      </trkpt>
      <trkpt lat="45.94806" lon="4.73096">
        <ele>169.45</ele>
        <time>2025-05-03T20:18:01.392Z</time>
      </trkpt>
      <trkpt lat="45.9483" lon="4.73109">
        <ele>169.19</ele>
        <time>2025-05-03T20:18:01.472Z</time>
      </trkpt>
      <trkpt lat="45.94857" lon="4.73129">
        <ele>169</ele>
        <time>2025-05-03T20:18:01.562Z</time>
      </trkpt>
      <trkpt lat="45.94885" lon="4.73149">
        <ele>168.88</ele>
        <time>2025-05-03T20:18:01.662Z</time>
      </trkpt>
      <trkpt lat="45.94912" lon="4.73169">
        <ele>168.67</ele>
        <time>2025-05-03T20:18:01.773Z</time>
      </trkpt>
      <trkpt lat="45.94939" lon="4.73189">
        <ele>168.51</ele>
        <time>2025-05-03T20:18:01.894Z</time>
      </trkpt>
      <trkpt lat="45.94958" lon="4.73205">
        <ele>168.45</ele>
        <time>2025-05-03T20:18:02.022Z</time>
      </trkpt>
      <trkpt lat="45.94976" lon="4.73221">
        <ele>168.44</ele>
        <time>2025-05-03T20:18:02.157Z</time>
      </trkpt>
      <trkpt lat="45.95" lon="4.73246">
        <ele>168.49</ele>
        <time>2025-05-03T20:18:02.302Z</time>
      </trkpt>
      <trkpt lat="45.95024" lon="4.73272">
        <ele>168.66</ele>
        <time>2025-05-03T20:18:02.457Z</time>
      </trkpt>
      <trkpt lat="45.95048" lon="4.73297">
        <ele>168.84</ele>
        <time>2025-05-03T20:18:02.622Z</time>
      </trkpt>
      <trkpt lat="45.95073" lon="4.73322">
        <ele>169.03</ele>
        <time>2025-05-03T20:18:02.797Z</time>
      </trkpt>
      <trkpt lat="45.95092" lon="4.73344">
        <ele>169.23</ele>
        <time>2025-05-03T20:18:02.980Z</time>
      </trkpt>
      <trkpt lat="45.95111" lon="4.73366">
        <ele>169.37</ele>
        <time>2025-05-03T20:18:03.172Z</time>
      </trkpt>
      <trkpt lat="45.9513" lon="4.73388">
        <ele>169.64</ele>
        <time>2025-05-03T20:18:03.372Z</time>
      </trkpt>
      <trkpt lat="45.95148" lon="4.73415">
        <ele>169.97</ele>
        <time>2025-05-03T20:18:03.580Z</time>
      </trkpt>
      <trkpt lat="45.95166" lon="4.73441">
        <ele>170.16</ele>
        <time>2025-05-03T20:18:03.797Z</time>
      </trkpt>
      <trkpt lat="45.95184" lon="4.73468">
        <ele>170.35</ele>
        <time>2025-05-03T20:18:04.022Z</time>
      </trkpt>
      <trkpt lat="45.95203" lon="4.73499">
        <ele>170.64</ele>
        <time>2025-05-03T20:18:04.257Z</time>
      </trkpt>
      <trkpt lat="45.95221" lon="4.73529">
        <ele>170.76</ele>
        <time>2025-05-03T20:18:04.501Z</time>
      </trkpt>
      <trkpt lat="45.9524" lon="4.7356">
        <ele>171.02</ele>
        <time>2025-05-03T20:18:04.755Z</time>
      </trkpt>
      <trkpt lat="45.95259" lon="4.73581">
        <ele>171.28</ele>
        <time>2025-05-03T20:18:05.017Z</time>
      </trkpt>
      <trkpt lat="45.95279" lon="4.73602">
        <ele>171.58</ele>
        <time>2025-05-03T20:18:05.287Z</time>
      </trkpt>
      <trkpt lat="45.95298" lon="4.73622">
        <ele>171.76</ele>
        <time>2025-05-03T20:18:05.565Z</time>
      </trkpt>
      <trkpt lat="45.9532" lon="4.73654">
        <ele>171.78</ele>
        <time>2025-05-03T20:18:05.853Z</time>
      </trkpt>
      <trkpt lat="45.95342" lon="4.73686">
        <ele>171.76</ele>
        <time>2025-05-03T20:18:06.152Z</time>
      </trkpt>
      <trkpt lat="45.95363" lon="4.73718">
        <ele>171.82</ele>
        <time>2025-05-03T20:18:06.461Z</time>
      </trkpt>
      <trkpt lat="45.95385" lon="4.7375">
        <ele>171.99</ele>
        <time>2025-05-03T20:18:06.781Z</time>
      </trkpt>
      <trkpt lat="45.95407" lon="4.73782">
        <ele>172.09</ele>
        <time>2025-05-03T20:18:07.111Z</time>
      </trkpt>
      <trkpt lat="45.95429" lon="4.73814">
        <ele>172.03</ele>
        <time>2025-05-03T20:18:07.452Z</time>
      </trkpt>
      <trkpt lat="45.95451" lon="4.73846">
        <ele>171.88</ele>
        <time>2025-05-03T20:18:07.803Z</time>
      </trkpt>
      <trkpt lat="45.95473" lon="4.73878">
        <ele>171.88</ele>
        <time>2025-05-03T20:18:08.164Z</time>
      </trkpt>
      <trkpt lat="45.95495" lon="4.73911">
        <ele>171.95</ele>
        <time>2025-05-03T20:18:08.536Z</time>
      </trkpt>
      <trkpt lat="45.95517" lon="4.73943">
        <ele>172.05</ele>
        <time>2025-05-03T20:18:08.918Z</time>
      </trkpt>
      <trkpt lat="45.95538" lon="4.73974">
        <ele>171.94</ele>
        <time>2025-05-03T20:18:09.311Z</time>
      </trkpt>
      <trkpt lat="45.95557" lon="4.74005">
        <ele>171.88</ele>
        <time>2025-05-03T20:18:09.713Z</time>
      </trkpt>
      <trkpt lat="45.95576" lon="4.74037">
        <ele>171.96</ele>
        <time>2025-05-03T20:18:10.125Z</time>
      </trkpt>
      <trkpt lat="45.95595" lon="4.74068">
        <ele>172.12</ele>
        <time>2025-05-03T20:18:10.546Z</time>
      </trkpt>
      <trkpt lat="45.95614" lon="4.74099">
        <ele>172.32</ele>
        <time>2025-05-03T20:18:10.977Z</time>
      </trkpt>
      <trkpt lat="45.95633" lon="4.7413">
        <ele>172.42</ele>
        <time>2025-05-03T20:18:11.418Z</time>
      </trkpt>
      <trkpt lat="45.95653" lon="4.74161">
        <ele>172.5</ele>
        <time>2025-05-03T20:18:11.868Z</time>
      </trkpt>
      <trkpt lat="45.95672" lon="4.74192">
        <ele>172.4</ele>
        <time>2025-05-03T20:18:12.328Z</time>
      </trkpt>
      <trkpt lat="45.9569" lon="4.74223">
        <ele>172.15</ele>
        <time>2025-05-03T20:18:12.798Z</time>
      </trkpt>
      <trkpt lat="45.95709" lon="4.74257">
        <ele>172.03</ele>
        <time>2025-05-03T20:18:13.278Z</time>
      </trkpt>
      <trkpt lat="45.95728" lon="4.74291">
        <ele>171.97</ele>
        <time>2025-05-03T20:18:13.768Z</time>
      </trkpt>
      <trkpt lat="45.95747" lon="4.74325">
        <ele>171.85</ele>
        <time>2025-05-03T20:18:14.268Z</time>
      </trkpt>
      <trkpt lat="45.95765" lon="4.74359">
        <ele>171.74</ele>
        <time>2025-05-03T20:18:14.778Z</time>
      </trkpt>
      <trkpt lat="45.95784" lon="4.74393">
        <ele>171.55</ele>
        <time>2025-05-03T20:18:15.298Z</time>
      </trkpt>
      <trkpt lat="45.95803" lon="4.74426">
        <ele>171.41</ele>
        <time>2025-05-03T20:18:15.828Z</time>
      </trkpt>
      <trkpt lat="45.95821" lon="4.7446">
        <ele>171.22</ele>
        <time>2025-05-03T20:18:16.368Z</time>
      </trkpt>
      <trkpt lat="45.9584" lon="4.74494">
        <ele>171.04</ele>
        <time>2025-05-03T20:18:16.918Z</time>
      </trkpt>
      <trkpt lat="45.95859" lon="4.74528">
        <ele>170.82</ele>
        <time>2025-05-03T20:18:17.478Z</time>
      </trkpt>
      <trkpt lat="45.95877" lon="4.74562">
        <ele>170.56</ele>
        <time>2025-05-03T20:18:18.048Z</time>
      </trkpt>
      <trkpt lat="45.95896" lon="4.74596">
        <ele>170.43</ele>
        <time>2025-05-03T20:18:18.628Z</time>
      </trkpt>
      <trkpt lat="45.95915" lon="4.7463">
        <ele>169.98</ele>
        <time>2025-05-03T20:18:19.218Z</time>
      </trkpt>
      <trkpt lat="45.95933" lon="4.74663">
        <ele>169.72</ele>
        <time>2025-05-03T20:18:19.818Z</time>
      </trkpt>
      <trkpt lat="45.95933" lon="4.74663">
        <ele>169.56</ele>
        <time>2025-05-03T20:18:20.418Z</time>
      </trkpt>
      <trkpt lat="45.95953" lon="4.74693">
        <ele>169.57</ele>
        <time>2025-05-03T20:18:21.028Z</time>
      </trkpt>
      <trkpt lat="45.95974" lon="4.74723">
        <ele>169.58</ele>
        <time>2025-05-03T20:18:21.647Z</time>
      </trkpt>
      <trkpt lat="45.95992" lon="4.74743">
        <ele>169.47</ele>
        <time>2025-05-03T20:18:22.274Z</time>
      </trkpt>
      <trkpt lat="45.9601" lon="4.74763">
        <ele>169.36</ele>
        <time>2025-05-03T20:18:22.909Z</time>
      </trkpt>
      <trkpt lat="45.96027" lon="4.74783">
        <ele>169.55</ele>
        <time>2025-05-03T20:18:23.551Z</time>
      </trkpt>
      <trkpt lat="45.96046" lon="4.7481">
        <ele>169.51</ele>
        <time>2025-05-03T20:18:24.202Z</time>
      </trkpt>
      <trkpt lat="45.96065" lon="4.74836">
        <ele>170.32</ele>
        <time>2025-05-03T20:18:24.862Z</time>
      </trkpt>
      <trkpt lat="45.96083" lon="4.74863">
        <ele>170.73</ele>
        <time>2025-05-03T20:18:25.530Z</time>
      </trkpt>
      <trkpt lat="45.96092" lon="4.74873">
        <ele>171.17</ele>
        <time>2025-05-03T20:18:26.202Z</time>
      </trkpt>
      <trkpt lat="45.96093" lon="4.74873">
        <ele>171.73</ele>
        <time>2025-05-03T20:18:26.874Z</time>
      </trkpt>
      <trkpt lat="45.96101" lon="4.74881">
        <ele>172.29</ele>
        <time>2025-05-03T20:18:27.550Z</time>
      </trkpt>
      <trkpt lat="45.96101" lon="4.74881">
        <ele>173.01</ele>
        <time>2025-05-03T20:18:28.226Z</time>
      </trkpt>
      <trkpt lat="45.96101" lon="4.74881">
        <ele>173.8</ele>
        <time>2025-05-03T20:18:28.902Z</time>
      </trkpt>
      <trkpt lat="45.9608" lon="4.74916">
        <ele>174.98</ele>
        <time>2025-05-03T20:18:29.588Z</time>
      </trkpt>
      <trkpt lat="45.9606" lon="4.7495">
        <ele>176.07</ele>
        <time>2025-05-03T20:18:30.285Z</time>
      </trkpt>
      <trkpt lat="45.96055" lon="4.74959">
        <ele>177.12</ele>
        <time>2025-05-03T20:18:30.984Z</time>
      </trkpt>
      <trkpt lat="45.96055" lon="4.74959">
        <ele>178.1</ele>
        <time>2025-05-03T20:18:31.683Z</time>
      </trkpt>
      <trkpt lat="45.96055" lon="4.74959">
        <ele>179.1</ele>
        <time>2025-05-03T20:18:32.382Z</time>
      </trkpt>
      <trkpt lat="45.96038" lon="4.74982">
        <ele>180.35</ele>
        <time>2025-05-03T20:18:33.089Z</time>
      </trkpt>
      <trkpt lat="45.96038" lon="4.74982">
        <ele>181.35</ele>
        <time>2025-05-03T20:18:33.796Z</time>
      </trkpt>
      <trkpt lat="45.96038" lon="4.74982">
        <ele>182.32</ele>
        <time>2025-05-03T20:18:34.503Z</time>
      </trkpt>
      <trkpt lat="45.96014" lon="4.75009">
        <ele>183.5</ele>
        <time>2025-05-03T20:18:35.220Z</time>
      </trkpt>
      <trkpt lat="45.96012" lon="4.75011">
        <ele>184.44</ele>
        <time>2025-05-03T20:18:35.938Z</time>
      </trkpt>
      <trkpt lat="45.96012" lon="4.75011">
        <ele>185.32</ele>
        <time>2025-05-03T20:18:36.656Z</time>
      </trkpt>
      <trkpt lat="45.96012" lon="4.75011">
        <ele>186.15</ele>
        <time>2025-05-03T20:18:37.374Z</time>
      </trkpt>
      <trkpt lat="45.96012" lon="4.75012">
        <ele>186.95</ele>
        <time>2025-05-03T20:18:38.092Z</time>
      </trkpt>
      <trkpt lat="45.95991" lon="4.75025">
        <ele>187.79</ele>
        <time>2025-05-03T20:18:38.818Z</time>
      </trkpt>
      <trkpt lat="45.95971" lon="4.75038">
        <ele>188.53</ele>
        <time>2025-05-03T20:18:39.551Z</time>
      </trkpt>
      <trkpt lat="45.9595" lon="4.75051">
        <ele>189.27</ele>
        <time>2025-05-03T20:18:40.292Z</time>
      </trkpt>
      <trkpt lat="45.95939" lon="4.75071">
        <ele>189.9</ele>
        <time>2025-05-03T20:18:41.039Z</time>
      </trkpt>
      <trkpt lat="45.95939" lon="4.75088">
        <ele>190.53</ele>
        <time>2025-05-03T20:18:41.790Z</time>
      </trkpt>
      <trkpt lat="45.95914" lon="4.75101">
        <ele>190.94</ele>
        <time>2025-05-03T20:18:42.550Z</time>
      </trkpt>
      <trkpt lat="45.95888" lon="4.75114">
        <ele>191.34</ele>
        <time>2025-05-03T20:18:43.319Z</time>
      </trkpt>
      <trkpt lat="45.95862" lon="4.75139">
        <ele>191.83</ele>
        <time>2025-05-03T20:18:44.098Z</time>
      </trkpt>
      <trkpt lat="45.95856" lon="4.75147">
        <ele>192.18</ele>
        <time>2025-05-03T20:18:44.880Z</time>
      </trkpt>
      <trkpt lat="45.95856" lon="4.75147">
        <ele>192.46</ele>
        <time>2025-05-03T20:18:45.662Z</time>
      </trkpt>
      <trkpt lat="45.95856" lon="4.75147">
        <ele>192.69</ele>
        <time>2025-05-03T20:18:46.444Z</time>
      </trkpt>
      <trkpt lat="45.95839" lon="4.7517">
        <ele>192.93</ele>
        <time>2025-05-03T20:18:47.234Z</time>
      </trkpt>
      <trkpt lat="45.95821" lon="4.75193">
        <ele>193.13</ele>
        <time>2025-05-03T20:18:48.032Z</time>
      </trkpt>
      <trkpt lat="45.95805" lon="4.7517">
        <ele>193.2</ele>
        <time>2025-05-03T20:18:48.837Z</time>
      </trkpt>
      <trkpt lat="45.95789" lon="4.75147">
        <ele>193.23</ele>
        <time>2025-05-03T20:18:49.650Z</time>
      </trkpt>
      <trkpt lat="45.95773" lon="4.75124">
        <ele>193.27</ele>
        <time>2025-05-03T20:18:50.470Z</time>
      </trkpt>
      <trkpt lat="45.95773" lon="4.75124">
        <ele>193.25</ele>
        <time>2025-05-03T20:18:51.290Z</time>
      </trkpt>
      <trkpt lat="45.95773" lon="4.75124">
        <ele>193.19</ele>
        <time>2025-05-03T20:18:52.110Z</time>
      </trkpt>
      <trkpt lat="45.95752" lon="4.75094">
        <ele>193.1</ele>
        <time>2025-05-03T20:18:52.940Z</time>
      </trkpt>
      <trkpt lat="45.95731" lon="4.75064">
        <ele>192.96</ele>
        <time>2025-05-03T20:18:53.780Z</time>
      </trkpt>
      <trkpt lat="45.9571" lon="4.75034">
        <ele>192.78</ele>
        <time>2025-05-03T20:18:54.630Z</time>
      </trkpt>
      <trkpt lat="45.95689" lon="4.75004">
        <ele>192.58</ele>
        <time>2025-05-03T20:18:55.490Z</time>
      </trkpt>
      <trkpt lat="45.95668" lon="4.74974">
        <ele>192.43</ele>
        <time>2025-05-03T20:18:56.360Z</time>
      </trkpt>
      <trkpt lat="45.95647" lon="4.74944">
        <ele>192.26</ele>
        <time>2025-05-03T20:18:57.240Z</time>
      </trkpt>
      <trkpt lat="45.95626" lon="4.74914">
        <ele>192.06</ele>
        <time>2025-05-03T20:18:58.130Z</time>
      </trkpt>
      <trkpt lat="45.95603" lon="4.74883">
        <ele>191.78</ele>
        <time>2025-05-03T20:18:59.030Z</time>
      </trkpt>
      <trkpt lat="45.9558" lon="4.74853">
        <ele>191.61</ele>
        <time>2025-05-03T20:18:59.941Z</time>
      </trkpt>
      <trkpt lat="45.95557" lon="4.74822">
        <ele>191.44</ele>
        <time>2025-05-03T20:19:00.862Z</time>
      </trkpt>
      <trkpt lat="45.95534" lon="4.74792">
        <ele>191.26</ele>
        <time>2025-05-03T20:19:01.794Z</time>
      </trkpt>
      <trkpt lat="45.95534" lon="4.74792">
        <ele>191</ele>
        <time>2025-05-03T20:19:02.726Z</time>
      </trkpt>
      <trkpt lat="45.95511" lon="4.74761">
        <ele>190.7</ele>
        <time>2025-05-03T20:19:03.668Z</time>
      </trkpt>
      <trkpt lat="45.95488" lon="4.74731">
        <ele>190.3</ele>
        <time>2025-05-03T20:19:04.621Z</time>
      </trkpt>
      <trkpt lat="45.95465" lon="4.747">
        <ele>189.97</ele>
        <time>2025-05-03T20:19:05.584Z</time>
      </trkpt>
      <trkpt lat="45.95442" lon="4.7467">
        <ele>189.61</ele>
        <time>2025-05-03T20:19:06.557Z</time>
      </trkpt>
      <trkpt lat="45.95419" lon="4.74639">
        <ele>189.39</ele>
        <time>2025-05-03T20:19:07.541Z</time>
      </trkpt>
      <trkpt lat="45.95396" lon="4.74609">
        <ele>189.36</ele>
        <time>2025-05-03T20:19:08.535Z</time>
      </trkpt>
      <trkpt lat="45.95373" lon="4.74578">
        <ele>189.62</ele>
        <time>2025-05-03T20:19:09.540Z</time>
      </trkpt>
      <trkpt lat="45.9535" lon="4.74548">
        <ele>189.74</ele>
        <time>2025-05-03T20:19:10.555Z</time>
      </trkpt>
      <trkpt lat="45.95327" lon="4.74517">
        <ele>189.72</ele>
        <time>2025-05-03T20:19:11.581Z</time>
      </trkpt>
      <trkpt lat="45.95304" lon="4.74487">
        <ele>189.81</ele>
        <time>2025-05-03T20:19:12.617Z</time>
      </trkpt>
      <trkpt lat="45.95283" lon="4.74462">
        <ele>190.01</ele>
        <time>2025-05-03T20:19:13.662Z</time>
      </trkpt>
      <trkpt lat="45.95263" lon="4.74437">
        <ele>190.24</ele>
        <time>2025-05-03T20:19:14.716Z</time>
      </trkpt>
      <trkpt lat="45.95242" lon="4.74412">
        <ele>190.44</ele>
        <time>2025-05-03T20:19:15.779Z</time>
      </trkpt>
      <trkpt lat="45.95223" lon="4.74395">
        <ele>190.72</ele>
        <time>2025-05-03T20:19:16.850Z</time>
      </trkpt>
      <trkpt lat="45.95211" lon="4.74426">
        <ele>191.26</ele>
        <time>2025-05-03T20:19:17.929Z</time>
      </trkpt>
      <trkpt lat="45.952" lon="4.74457">
        <ele>191.75</ele>
        <time>2025-05-03T20:19:19.016Z</time>
      </trkpt>
      <trkpt lat="45.952" lon="4.74457">
        <ele>192.14</ele>
        <time>2025-05-03T20:19:20.103Z</time>
      </trkpt>
      <trkpt lat="45.952" lon="4.74457">
        <ele>192.54</ele>
        <time>2025-05-03T20:19:21.190Z</time>
      </trkpt>
      <trkpt lat="45.95186" lon="4.74493">
        <ele>192.94</ele>
        <time>2025-05-03T20:19:22.286Z</time>
      </trkpt>
      <trkpt lat="45.95173" lon="4.74528">
        <ele>193.34</ele>
        <time>2025-05-03T20:19:23.392Z</time>
      </trkpt>
      <trkpt lat="45.95159" lon="4.7456">
        <ele>193.76</ele>
        <time>2025-05-03T20:19:24.506Z</time>
      </trkpt>
      <trkpt lat="45.95145" lon="4.74591">
        <ele>194.15</ele>
        <time>2025-05-03T20:19:25.629Z</time>
      </trkpt>
      <trkpt lat="45.95131" lon="4.74623">
        <ele>194.45</ele>
        <time>2025-05-03T20:19:26.761Z</time>
      </trkpt>
      <trkpt lat="45.95118" lon="4.74654">
        <ele>194.71</ele>
        <time>2025-05-03T20:19:27.901Z</time>
      </trkpt>
      <trkpt lat="45.95117" lon="4.74655">
        <ele>194.86</ele>
        <time>2025-05-03T20:19:29.042Z</time>
      </trkpt>
      <trkpt lat="45.95105" lon="4.74684">
        <ele>194.84</ele>
        <time>2025-05-03T20:19:30.191Z</time>
      </trkpt>
      <trkpt lat="45.95098" lon="4.74721">
        <ele>194.81</ele>
        <time>2025-05-03T20:19:31.348Z</time>
      </trkpt>
      <trkpt lat="45.95098" lon="4.74721">
        <ele>194.75</ele>
        <time>2025-05-03T20:19:32.506Z</time>
      </trkpt>
      <trkpt lat="45.95092" lon="4.74727">
        <ele>194.61</ele>
        <time>2025-05-03T20:19:33.666Z</time>
      </trkpt>
      <trkpt lat="45.95063" lon="4.7471">
        <ele>194.48</ele>
        <time>2025-05-03T20:19:34.837Z</time>
      </trkpt>
      <trkpt lat="45.95034" lon="4.74693">
        <ele>194.2</ele>
        <time>2025-05-03T20:19:36.018Z</time>
      </trkpt>
      <trkpt lat="45.95004" lon="4.74695">
        <ele>193.77</ele>
        <time>2025-05-03T20:19:37.209Z</time>
      </trkpt>
      <trkpt lat="45.94978" lon="4.7468">
        <ele>193.3</ele>
        <time>2025-05-03T20:19:38.409Z</time>
      </trkpt>
      <trkpt lat="45.94953" lon="4.74665">
        <ele>192.84</ele>
        <time>2025-05-03T20:19:39.618Z</time>
      </trkpt>
      <trkpt lat="45.94928" lon="4.74651">
        <ele>192.29</ele>
        <time>2025-05-03T20:19:40.836Z</time>
      </trkpt>
      <trkpt lat="45.94903" lon="4.74636">
        <ele>191.69</ele>
        <time>2025-05-03T20:19:42.064Z</time>
      </trkpt>
      <trkpt lat="45.94902" lon="4.74636">
        <ele>191.03</ele>
        <time>2025-05-03T20:19:43.292Z</time>
      </trkpt>
      <trkpt lat="45.94902" lon="4.74636">
        <ele>190.32</ele>
        <time>2025-05-03T20:19:44.520Z</time>
      </trkpt>
      <trkpt lat="45.94886" lon="4.74626">
        <ele>189.48</ele>
        <time>2025-05-03T20:19:45.754Z</time>
      </trkpt>
      <trkpt lat="45.94869" lon="4.74616">
        <ele>188.61</ele>
        <time>2025-05-03T20:19:46.994Z</time>
      </trkpt>
      <trkpt lat="45.94851" lon="4.74609">
        <ele>187.73</ele>
        <time>2025-05-03T20:19:48.240Z</time>
      </trkpt>
      <trkpt lat="45.94833" lon="4.74627">
        <ele>186.77</ele>
        <time>2025-05-03T20:19:49.493Z</time>
      </trkpt>
      <trkpt lat="45.94814" lon="4.74644">
        <ele>185.87</ele>
        <time>2025-05-03T20:19:50.753Z</time>
      </trkpt>
      <trkpt lat="45.94796" lon="4.74661">
        <ele>184.81</ele>
        <time>2025-05-03T20:19:52.021Z</time>
      </trkpt>
      <trkpt lat="45.94785" lon="4.74663">
        <ele>183.93</ele>
        <time>2025-05-03T20:19:53.292Z</time>
      </trkpt>
      <trkpt lat="45.94776" lon="4.74646">
        <ele>183.23</ele>
        <time>2025-05-03T20:19:54.568Z</time>
      </trkpt>
      <trkpt lat="45.94772" lon="4.74629">
        <ele>182.64</ele>
        <time>2025-05-03T20:19:55.849Z</time>
      </trkpt>
      <trkpt lat="45.94768" lon="4.74591">
        <ele>182.13</ele>
        <time>2025-05-03T20:19:57.138Z</time>
      </trkpt>
      <trkpt lat="45.94764" lon="4.74553">
        <ele>181.59</ele>
        <time>2025-05-03T20:19:58.436Z</time>
      </trkpt>
      <trkpt lat="45.94759" lon="4.74515">
        <ele>181.15</ele>
        <time>2025-05-03T20:19:59.743Z</time>
      </trkpt>
      <trkpt lat="45.94755" lon="4.74477">
        <ele>180.8</ele>
        <time>2025-05-03T20:20:01.059Z</time>
      </trkpt>
      <trkpt lat="45.94751" lon="4.7444">
        <ele>180.42</ele>
        <time>2025-05-03T20:20:02.384Z</time>
      </trkpt>
      <trkpt lat="45.94751" lon="4.7444">
        <ele>179.78</ele>
        <time>2025-05-03T20:20:03.709Z</time>
      </trkpt>
      <trkpt lat="45.94751" lon="4.7444">
        <ele>179.47</ele>
        <time>2025-05-03T20:20:05.034Z</time>
      </trkpt>
      <trkpt lat="45.94751" lon="4.74438">
        <ele>179.16</ele>
        <time>2025-05-03T20:20:06.360Z</time>
      </trkpt>
      <trkpt lat="45.94744" lon="4.74414">
        <ele>178.83</ele>
        <time>2025-05-03T20:20:07.691Z</time>
      </trkpt>
      <trkpt lat="45.94727" lon="4.74377">
        <ele>178.51</ele>
        <time>2025-05-03T20:20:09.033Z</time>
      </trkpt>
      <trkpt lat="45.9471" lon="4.7434">
        <ele>178.23</ele>
        <time>2025-05-03T20:20:10.385Z</time>
      </trkpt>
      <trkpt lat="45.94693" lon="4.74303">
        <ele>177.95</ele>
        <time>2025-05-03T20:20:11.748Z</time>
      </trkpt>
      <trkpt lat="45.94676" lon="4.74324">
        <ele>177.42</ele>
        <time>2025-05-03T20:20:13.118Z</time>
      </trkpt>
      <trkpt lat="45.9466" lon="4.74345">
        <ele>176.86</ele>
        <time>2025-05-03T20:20:14.495Z</time>
      </trkpt>
      <trkpt lat="45.94643" lon="4.74367">
        <ele>176.26</ele>
        <time>2025-05-03T20:20:15.880Z</time>
      </trkpt>
      <trkpt lat="45.94624" lon="4.74397">
        <ele>175.64</ele>
        <time>2025-05-03T20:20:17.274Z</time>
      </trkpt>
      <trkpt lat="45.94605" lon="4.74427">
        <ele>175.23</ele>
        <time>2025-05-03T20:20:18.678Z</time>
      </trkpt>
      <trkpt lat="45.94585" lon="4.74457">
        <ele>174.85</ele>
        <time>2025-05-03T20:20:20.091Z</time>
      </trkpt>
      <trkpt lat="45.94568" lon="4.74481">
        <ele>174.55</ele>
        <time>2025-05-03T20:20:21.512Z</time>
      </trkpt>
      <trkpt lat="45.9455" lon="4.74505">
        <ele>174.24</ele>
        <time>2025-05-03T20:20:22.942Z</time>
      </trkpt>
      <trkpt lat="45.9455" lon="4.74505">
        <ele>173.89</ele>
        <time>2025-05-03T20:20:24.372Z</time>
      </trkpt>
      <trkpt lat="45.9455" lon="4.74505">
        <ele>173.56</ele>
        <time>2025-05-03T20:20:25.802Z</time>
      </trkpt>
      <trkpt lat="45.9453" lon="4.74531">
        <ele>173.23</ele>
        <time>2025-05-03T20:20:27.241Z</time>
      </trkpt>
      <trkpt lat="45.94511" lon="4.74557">
        <ele>172.83</ele>
        <time>2025-05-03T20:20:28.689Z</time>
      </trkpt>
      <trkpt lat="45.94491" lon="4.74584">
        <ele>172.54</ele>
        <time>2025-05-03T20:20:30.145Z</time>
      </trkpt>
      <trkpt lat="45.94465" lon="4.74593">
        <ele>172.28</ele>
        <time>2025-05-03T20:20:31.610Z</time>
      </trkpt>
      <trkpt lat="45.9444" lon="4.74602">
        <ele>171.98</ele>
        <time>2025-05-03T20:20:33.084Z</time>
      </trkpt>
      <trkpt lat="45.94414" lon="4.74611">
        <ele>171.63</ele>
        <time>2025-05-03T20:20:34.567Z</time>
      </trkpt>
      <trkpt lat="45.94388" lon="4.7462">
        <ele>171.41</ele>
        <time>2025-05-03T20:20:36.059Z</time>
      </trkpt>
      <trkpt lat="45.94388" lon="4.7462">
        <ele>171.22</ele>
        <time>2025-05-03T20:20:37.551Z</time>
      </trkpt>
      <trkpt lat="45.94358" lon="4.74622">
        <ele>171.14</ele>
        <time>2025-05-03T20:20:39.053Z</time>
      </trkpt>
      <trkpt lat="45.94351" lon="4.74621">
        <ele>171</ele>
        <time>2025-05-03T20:20:40.557Z</time>
      </trkpt>
      <trkpt lat="45.94351" lon="4.74621">
        <ele>170.86</ele>
        <time>2025-05-03T20:20:42.061Z</time>
      </trkpt>
      <trkpt lat="45.94351" lon="4.74621">
        <ele>170.73</ele>
        <time>2025-05-03T20:20:43.565Z</time>
      </trkpt>
      <trkpt lat="45.94349" lon="4.74621">
        <ele>170.61</ele>
        <time>2025-05-03T20:20:45.070Z</time>
      </trkpt>
      <trkpt lat="45.94319" lon="4.7462">
        <ele>170.5</ele>
        <time>2025-05-03T20:20:46.585Z</time>
      </trkpt>
      <trkpt lat="45.94288" lon="4.74618">
        <ele>170.32</ele>
        <time>2025-05-03T20:20:48.110Z</time>
      </trkpt>
      <trkpt lat="45.94256" lon="4.74617">
        <ele>170.21</ele>
        <time>2025-05-03T20:20:49.646Z</time>
      </trkpt>
      <trkpt lat="45.94239" lon="4.74616">
        <ele>170.08</ele>
        <time>2025-05-03T20:20:51.188Z</time>
      </trkpt>
      <trkpt lat="45.94238" lon="4.74616">
        <ele>170.01</ele>
        <time>2025-05-03T20:20:52.730Z</time>
      </trkpt>
      <trkpt lat="45.94238" lon="4.74616">
        <ele>169.95</ele>
        <time>2025-05-03T20:20:54.272Z</time>
      </trkpt>
      <trkpt lat="45.94208" lon="4.74605">
        <ele>169.86</ele>
        <time>2025-05-03T20:20:55.824Z</time>
      </trkpt>
      <trkpt lat="45.94178" lon="4.74593">
        <ele>169.8</ele>
        <time>2025-05-03T20:20:57.387Z</time>
      </trkpt>
      <trkpt lat="45.94147" lon="4.74581">
        <ele>169.81</ele>
        <time>2025-05-03T20:20:58.960Z</time>
      </trkpt>
      <trkpt lat="45.94117" lon="4.74569">
        <ele>169.9</ele>
        <time>2025-05-03T20:21:00.544Z</time>
      </trkpt>
      <trkpt lat="45.94111" lon="4.74567">
        <ele>169.94</ele>
        <time>2025-05-03T20:21:02.130Z</time>
      </trkpt>
      <trkpt lat="45.94111" lon="4.74567">
        <ele>169.97</ele>
        <time>2025-05-03T20:21:03.716Z</time>
      </trkpt>
      <trkpt lat="45.9411" lon="4.74567">
        <ele>170.02</ele>
        <time>2025-05-03T20:21:05.302Z</time>
      </trkpt>
      <trkpt lat="45.94081" lon="4.74552">
        <ele>170.07</ele>
        <time>2025-05-03T20:21:06.898Z</time>
      </trkpt>
      <trkpt lat="45.94051" lon="4.74537">
        <ele>170.09</ele>
        <time>2025-05-03T20:21:08.505Z</time>
      </trkpt>
      <trkpt lat="45.94021" lon="4.74523">
        <ele>170.14</ele>
        <time>2025-05-03T20:21:10.122Z</time>
      </trkpt>
      <trkpt lat="45.94017" lon="4.74521">
        <ele>170.21</ele>
        <time>2025-05-03T20:21:11.741Z</time>
      </trkpt>
      <trkpt lat="45.94017" lon="4.7452">
        <ele>170.28</ele>
        <time>2025-05-03T20:21:13.360Z</time>
      </trkpt>
      <trkpt lat="45.94017" lon="4.7452">
        <ele>170.36</ele>
        <time>2025-05-03T20:21:14.979Z</time>
      </trkpt>
      <trkpt lat="45.93986" lon="4.7451">
        <ele>170.52</ele>
        <time>2025-05-03T20:21:16.608Z</time>
      </trkpt>
      <trkpt lat="45.93956" lon="4.74499">
        <ele>170.64</ele>
        <time>2025-05-03T20:21:18.248Z</time>
      </trkpt>
      <trkpt lat="45.93925" lon="4.74488">
        <ele>170.69</ele>
        <time>2025-05-03T20:21:19.898Z</time>
      </trkpt>
      <trkpt lat="45.93907" lon="4.74482">
        <ele>170.66</ele>
        <time>2025-05-03T20:21:21.555Z</time>
      </trkpt>
      <trkpt lat="45.93907" lon="4.74482">
        <ele>170.69</ele>
        <time>2025-05-03T20:21:23.212Z</time>
      </trkpt>
      <trkpt lat="45.93907" lon="4.74476">
        <ele>170.73</ele>
        <time>2025-05-03T20:21:24.870Z</time>
      </trkpt>
      <trkpt lat="45.93907" lon="4.74433">
        <ele>170.9</ele>
        <time>2025-05-03T20:21:26.538Z</time>
      </trkpt>
      <trkpt lat="45.93907" lon="4.74433">
        <ele>170.89</ele>
        <time>2025-05-03T20:21:28.206Z</time>
      </trkpt>
      <trkpt lat="45.93904" lon="4.74402">
        <ele>170.93</ele>
        <time>2025-05-03T20:21:29.881Z</time>
      </trkpt>
      <trkpt lat="45.93901" lon="4.74371">
        <ele>170.83</ele>
        <time>2025-05-03T20:21:31.564Z</time>
      </trkpt>
      <trkpt lat="45.93903" lon="4.74335">
        <ele>170.6</ele>
        <time>2025-05-03T20:21:33.255Z</time>
      </trkpt>
      <trkpt lat="45.93903" lon="4.74299">
        <ele>170.45</ele>
        <time>2025-05-03T20:21:34.954Z</time>
      </trkpt>
      <trkpt lat="45.93903" lon="4.74264">
        <ele>170.31</ele>
        <time>2025-05-03T20:21:36.661Z</time>
      </trkpt>
      <trkpt lat="45.93903" lon="4.74264">
        <ele>170.27</ele>
        <time>2025-05-03T20:21:38.368Z</time>
      </trkpt>
      <trkpt lat="45.93903" lon="4.74251">
        <ele>170.23</ele>
        <time>2025-05-03T20:21:40.078Z</time>
      </trkpt>
      <trkpt lat="45.93907" lon="4.74209">
        <ele>170.23</ele>
        <time>2025-05-03T20:21:41.798Z</time>
      </trkpt>
      <trkpt lat="45.9391" lon="4.74168">
        <ele>170.28</ele>
        <time>2025-05-03T20:21:43.528Z</time>
      </trkpt>
      <trkpt lat="45.93913" lon="4.74126">
        <ele>170.38</ele>
        <time>2025-05-03T20:21:45.268Z</time>
      </trkpt>
      <trkpt lat="45.93917" lon="4.74084">
        <ele>170.57</ele>
        <time>2025-05-03T20:21:47.018Z</time>
      </trkpt>
      <trkpt lat="45.9392" lon="4.74043">
        <ele>170.72</ele>
        <time>2025-05-03T20:21:48.777Z</time>
      </trkpt>
      <trkpt lat="45.9392" lon="4.74043">
        <ele>170.8</ele>
        <time>2025-05-03T20:21:50.536Z</time>
      </trkpt>
      <trkpt lat="45.93923" lon="4.74007">
        <ele>170.88</ele>
        <time>2025-05-03T20:21:52.304Z</time>
      </trkpt>
      <trkpt lat="45.93927" lon="4.73972">
        <ele>170.93</ele>
        <time>2025-05-03T20:21:54.080Z</time>
      </trkpt>
      <trkpt lat="45.93931" lon="4.73936">
        <ele>170.93</ele>
        <time>2025-05-03T20:21:55.864Z</time>
      </trkpt>
      <trkpt lat="45.93935" lon="4.73899">
        <ele>171</ele>
        <time>2025-05-03T20:21:57.657Z</time>
      </trkpt>
      <trkpt lat="45.9394" lon="4.73863">
        <ele>170.99</ele>
        <time>2025-05-03T20:21:59.459Z</time>
      </trkpt>
      <trkpt lat="45.93942" lon="4.7385">
        <ele>170.99</ele>
        <time>2025-05-03T20:22:01.264Z</time>
      </trkpt>
      <trkpt lat="45.93942" lon="4.73842">
        <ele>171</ele>
        <time>2025-05-03T20:22:03.071Z</time>
      </trkpt>
      <trkpt lat="45.93942" lon="4.73842">
        <ele>170.98</ele>
        <time>2025-05-03T20:22:04.878Z</time>
      </trkpt>
      <trkpt lat="45.93946" lon="4.73802">
        <ele>171</ele>
        <time>2025-05-03T20:22:06.694Z</time>
      </trkpt>
      <trkpt lat="45.9395" lon="4.73762">
        <ele>170.94</ele>
        <time>2025-05-03T20:22:08.519Z</time>
      </trkpt>
      <trkpt lat="45.93951" lon="4.73753">
        <ele>170.87</ele>
        <time>2025-05-03T20:22:10.347Z</time>
      </trkpt>
      <trkpt lat="45.93951" lon="4.73753">
        <ele>170.78</ele>
        <time>2025-05-03T20:22:12.175Z</time>
      </trkpt>
      <trkpt lat="45.93955" lon="4.73717">
        <ele>170.6</ele>
        <time>2025-05-03T20:22:14.011Z</time>
      </trkpt>
      <trkpt lat="45.93961" lon="4.73676">
        <ele>170.41</ele>
        <time>2025-05-03T20:22:15.857Z</time>
      </trkpt>
      <trkpt lat="45.93967" lon="4.73642">
        <ele>170.28</ele>
        <time>2025-05-03T20:22:17.711Z</time>
      </trkpt>
      <trkpt lat="45.93967" lon="4.73642">
        <ele>170.17</ele>
        <time>2025-05-03T20:22:19.565Z</time>
      </trkpt>
      <trkpt lat="45.93975" lon="4.73605">
        <ele>169.96</ele>
        <time>2025-05-03T20:22:21.428Z</time>
      </trkpt>
      <trkpt lat="45.93975" lon="4.73605">
        <ele>169.87</ele>
        <time>2025-05-03T20:22:23.291Z</time>
      </trkpt>
      <trkpt lat="45.93975" lon="4.73605">
        <ele>169.79</ele>
        <time>2025-05-03T20:22:25.154Z</time>
      </trkpt>
      <trkpt lat="45.93976" lon="4.73599">
        <ele>169.72</ele>
        <time>2025-05-03T20:22:27.018Z</time>
      </trkpt>
      <trkpt lat="45.93988" lon="4.73565">
        <ele>169.67</ele>
        <time>2025-05-03T20:22:28.891Z</time>
      </trkpt>
      <trkpt lat="45.94" lon="4.73532">
        <ele>169.62</ele>
        <time>2025-05-03T20:22:30.773Z</time>
      </trkpt>
      <trkpt lat="45.9401" lon="4.73512">
        <ele>169.72</ele>
        <time>2025-05-03T20:22:32.661Z</time>
      </trkpt>
      <trkpt lat="45.94021" lon="4.73491">
        <ele>169.58</ele>
        <time>2025-05-03T20:22:34.555Z</time>
      </trkpt>
      <trkpt lat="45.94037" lon="4.73461">
        <ele>169.81</ele>
        <time>2025-05-03T20:22:36.458Z</time>
      </trkpt>
      <trkpt lat="45.94053" lon="4.73431">
        <ele>169.6</ele>
        <time>2025-05-03T20:22:38.369Z</time>
      </trkpt>
      <trkpt lat="45.94073" lon="4.73401">
        <ele>169.8</ele>
        <time>2025-05-03T20:22:40.290Z</time>
      </trkpt>
      <trkpt lat="45.94093" lon="4.7337">
        <ele>169.71</ele>
        <time>2025-05-03T20:22:42.221Z</time>
      </trkpt>
      <trkpt lat="45.94113" lon="4.7334">
        <ele>169.74</ele>
        <time>2025-05-03T20:22:44.161Z</time>
      </trkpt>
      <trkpt lat="45.94133" lon="4.73309">
        <ele>169.6</ele>
        <time>2025-05-03T20:22:46.111Z</time>
      </trkpt>
      <trkpt lat="45.94154" lon="4.73279">
        <ele>169.27</ele>
        <time>2025-05-03T20:22:48.071Z</time>
      </trkpt>
      <trkpt lat="45.94168" lon="4.73264">
        <ele>169.13</ele>
        <time>2025-05-03T20:22:50.037Z</time>
      </trkpt>
      <trkpt lat="45.94182" lon="4.73249">
        <ele>169.03</ele>
        <time>2025-05-03T20:22:52.009Z</time>
      </trkpt>
      <trkpt lat="45.94208" lon="4.73228">
        <ele>168.85</ele>
        <time>2025-05-03T20:22:53.991Z</time>
      </trkpt>
      <trkpt lat="45.94235" lon="4.73207">
        <ele>168.66</ele>
        <time>2025-05-03T20:22:55.983Z</time>
      </trkpt>
      <trkpt lat="45.94261" lon="4.73187">
        <ele>168.6</ele>
        <time>2025-05-03T20:22:57.985Z</time>
      </trkpt>
      <trkpt lat="45.94284" lon="4.73168">
        <ele>168.82</ele>
        <time>2025-05-03T20:22:59.996Z</time>
      </trkpt>
      <trkpt lat="45.94284" lon="4.73168">
        <ele>168.79</ele>
        <time>2025-05-03T20:23:02.007Z</time>
      </trkpt>
      <trkpt lat="45.94285" lon="4.73168">
        <ele>168.8</ele>
        <time>2025-05-03T20:23:04.018Z</time>
      </trkpt>
      <trkpt lat="45.94298" lon="4.73157">
        <ele>168.65</ele>
        <time>2025-05-03T20:23:06.034Z</time>
      </trkpt>
      <trkpt lat="45.94317" lon="4.73141">
        <ele>168.98</ele>
        <time>2025-05-03T20:23:08.057Z</time>
      </trkpt>
      <trkpt lat="45.94337" lon="4.73125">
        <ele>168.77</ele>
        <time>2025-05-03T20:23:10.088Z</time>
      </trkpt>
      <trkpt lat="45.94356" lon="4.73109">
        <ele>169</ele>
        <time>2025-05-03T20:23:12.126Z</time>
      </trkpt>
      <trkpt lat="45.94375" lon="4.73092">
        <ele>169.33</ele>
        <time>2025-05-03T20:23:14.172Z</time>
      </trkpt>
      <trkpt lat="45.94394" lon="4.73075">
        <ele>169.83</ele>
        <time>2025-05-03T20:23:16.225Z</time>
      </trkpt>
      <trkpt lat="45.94418" lon="4.73048">
        <ele>170.49</ele>
        <time>2025-05-03T20:23:18.288Z</time>
      </trkpt>
      <trkpt lat="45.94418" lon="4.73048">
        <ele>171.08</ele>
        <time>2025-05-03T20:23:20.351Z</time>
      </trkpt>
      <trkpt lat="45.94418" lon="4.73048">
        <ele>171.75</ele>
        <time>2025-05-03T20:23:22.414Z</time>
      </trkpt>
      <trkpt lat="45.94421" lon="4.73093">
        <ele>172.56</ele>
        <time>2025-05-03T20:23:24.488Z</time>
      </trkpt>
      <trkpt lat="45.94424" lon="4.73138">
        <ele>173.33</ele>
        <time>2025-05-03T20:23:26.572Z</time>
      </trkpt>
      <trkpt lat="45.94428" lon="4.73183">
        <ele>174.2</ele>
        <time>2025-05-03T20:23:28.667Z</time>
      </trkpt>
      <trkpt lat="45.94431" lon="4.73228">
        <ele>175.1</ele>
        <time>2025-05-03T20:23:30.772Z</time>
      </trkpt>
      <trkpt lat="45.94435" lon="4.73273">
        <ele>176.08</ele>
        <time>2025-05-03T20:23:32.888Z</time>
      </trkpt>
      <trkpt lat="45.94437" lon="4.73304">
        <ele>176.86</ele>
        <time>2025-05-03T20:23:35.011Z</time>
      </trkpt>
      <trkpt lat="45.94437" lon="4.73304">
        <ele>177.36</ele>
        <time>2025-05-03T20:23:37.134Z</time>
      </trkpt>
      <trkpt lat="45.94437" lon="4.73304">
        <ele>177.74</ele>
        <time>2025-05-03T20:23:39.257Z</time>
      </trkpt>
      <trkpt lat="45.94458" lon="4.73312">
        <ele>177.99</ele>
        <time>2025-05-03T20:23:41.387Z</time>
      </trkpt>
      <trkpt lat="45.94458" lon="4.73312">
        <ele>178.12</ele>
        <time>2025-05-03T20:23:43.517Z</time>
      </trkpt>
      <trkpt lat="45.94458" lon="4.73312">
        <ele>178.12</ele>
        <time>2025-05-03T20:23:45.648Z</time>
      </trkpt>
      <trkpt lat="45.94476" lon="4.73291">
        <ele>177.88</ele>
        <time>2025-05-03T20:23:47.786Z</time>
      </trkpt>
      <trkpt lat="45.94476" lon="4.73291">
        <ele>177.63</ele>
        <time>2025-05-03T20:23:49.924Z</time>
      </trkpt>
      <trkpt lat="45.94476" lon="4.73291">
        <ele>177.26</ele>
        <time>2025-05-03T20:23:52.062Z</time>
      </trkpt>
      <trkpt lat="45.94471" lon="4.73246">
        <ele>176.68</ele>
        <time>2025-05-03T20:23:54.211Z</time>
      </trkpt>
      <trkpt lat="45.94465" lon="4.73202">
        <ele>175.92</ele>
        <time>2025-05-03T20:23:56.370Z</time>
      </trkpt>
      <trkpt lat="45.9446" lon="4.73158">
        <ele>175.19</ele>
        <time>2025-05-03T20:23:58.540Z</time>
      </trkpt>
      <trkpt lat="45.94454" lon="4.73113">
        <ele>174.49</ele>
        <time>2025-05-03T20:24:00.720Z</time>
      </trkpt>
      <trkpt lat="45.94452" lon="4.73097">
        <ele>173.89</ele>
        <time>2025-05-03T20:24:02.904Z</time>
      </trkpt>
      <trkpt lat="45.94452" lon="4.73097">
        <ele>173.28</ele>
        <time>2025-05-03T20:24:05.088Z</time>
      </trkpt>
      <trkpt lat="45.94452" lon="4.73097">
        <ele>172.69</ele>
        <time>2025-05-03T20:24:07.272Z</time>
      </trkpt>
      <trkpt lat="45.94432" lon="4.73061">
        <ele>172.13</ele>
        <time>2025-05-03T20:24:09.467Z</time>
      </trkpt>
      <trkpt lat="45.94429" lon="4.73056">
        <ele>171.56</ele>
        <time>2025-05-03T20:24:11.664Z</time>
      </trkpt>
      <trkpt lat="45.94429" lon="4.73055">
        <ele>171.05</ele>
        <time>2025-05-03T20:24:13.861Z</time>
      </trkpt>
      <trkpt lat="45.94429" lon="4.73055">
        <ele>170.6</ele>
        <time>2025-05-03T20:24:16.058Z</time>
      </trkpt>
      <trkpt lat="45.94423" lon="4.73044">
        <ele>170.1</ele>
        <time>2025-05-03T20:24:18.258Z</time>
      </trkpt>
      <trkpt lat="45.94423" lon="4.73044">
        <ele>169.76</ele>
        <time>2025-05-03T20:24:20.458Z</time>
      </trkpt>
      <trkpt lat="45.94423" lon="4.73044">
        <ele>169.5</ele>
        <time>2025-05-03T20:24:22.658Z</time>
      </trkpt>
      <trkpt lat="45.94423" lon="4.73043">
        <ele>169.29</ele>
        <time>2025-05-03T20:24:24.858Z</time>
      </trkpt>
      <trkpt lat="45.94435" lon="4.73028">
        <ele>169.15</ele>
        <time>2025-05-03T20:24:27.064Z</time>
      </trkpt>
      <trkpt lat="45.94444" lon="4.73019">
        <ele>169.03</ele>
        <time>2025-05-03T20:24:29.273Z</time>
      </trkpt>
      <trkpt lat="45.94444" lon="4.73019">
        <ele>169.05</ele>
        <time>2025-05-03T20:24:31.482Z</time>
      </trkpt>
      <trkpt lat="45.94452" lon="4.73013">
        <ele>169.19</ele>
        <time>2025-05-03T20:24:33.694Z</time>
      </trkpt>
      <trkpt lat="45.94476" lon="4.73011">
        <ele>169.34</ele>
        <time>2025-05-03T20:24:35.914Z</time>
      </trkpt>
      <trkpt lat="45.94499" lon="4.7301">
        <ele>169.5</ele>
        <time>2025-05-03T20:24:38.142Z</time>
      </trkpt>
      <trkpt lat="45.94522" lon="4.73008">
        <ele>169.71</ele>
        <time>2025-05-03T20:24:40.378Z</time>
      </trkpt>
      <trkpt lat="45.94522" lon="4.73008">
        <ele>169.84</ele>
        <time>2025-05-03T20:24:42.614Z</time>
      </trkpt>
      <trkpt lat="45.94522" lon="4.73008">
        <ele>169.98</ele>
        <time>2025-05-03T20:24:44.850Z</time>
      </trkpt>
      <trkpt lat="45.94549" lon="4.73006">
        <ele>170.2</ele>
        <time>2025-05-03T20:24:47.095Z</time>
      </trkpt>
      <trkpt lat="45.94575" lon="4.73011">
        <ele>170.22</ele>
        <time>2025-05-03T20:24:49.348Z</time>
      </trkpt>
      <trkpt lat="45.94601" lon="4.73015">
        <ele>170.32</ele>
        <time>2025-05-03T20:24:51.610Z</time>
      </trkpt>
      <trkpt lat="45.94628" lon="4.73019">
        <ele>170.5</ele>
        <time>2025-05-03T20:24:53.881Z</time>
      </trkpt>
      <trkpt lat="45.94654" lon="4.73024">
        <ele>170.72</ele>
        <time>2025-05-03T20:24:56.161Z</time>
      </trkpt>
      <trkpt lat="45.94674" lon="4.73031">
        <ele>171.15</ele>
        <time>2025-05-03T20:24:58.448Z</time>
      </trkpt>
      <trkpt lat="45.94695" lon="4.73039">
        <ele>170.68</ele>
        <time>2025-05-03T20:25:00.742Z</time>
      </trkpt>
      <trkpt lat="45.94704" lon="4.73061">
        <ele>171.7</ele>
        <time>2025-05-03T20:25:03.042Z</time>
      </trkpt>
      <trkpt lat="45.94704" lon="4.73061">
        <ele>172</ele>
        <time>2025-05-03T20:25:05.342Z</time>
      </trkpt>
      <trkpt lat="45.94704" lon="4.73061">
        <ele>172.34</ele>
        <time>2025-05-03T20:25:07.642Z</time>
      </trkpt>
      <trkpt lat="45.94704" lon="4.73061">
        <ele>172.72</ele>
        <time>2025-05-03T20:25:09.942Z</time>
      </trkpt>
      <trkpt lat="45.94712" lon="4.73083">
        <ele>173.19</ele>
        <time>2025-05-03T20:25:12.248Z</time>
      </trkpt>
      <trkpt lat="45.94721" lon="4.73105">
        <ele>173.65</ele>
        <time>2025-05-03T20:25:14.560Z</time>
      </trkpt>
      <trkpt lat="45.94731" lon="4.73135">
        <ele>173.94</ele>
        <time>2025-05-03T20:25:16.880Z</time>
      </trkpt>
      <trkpt lat="45.94731" lon="4.73136">
        <ele>174.02</ele>
        <time>2025-05-03T20:25:19.200Z</time>
      </trkpt>
      <trkpt lat="45.94731" lon="4.73136">
        <ele>174</ele>
        <time>2025-05-03T20:25:21.520Z</time>
      </trkpt>
      <trkpt lat="45.947" lon="4.7313">
        <ele>173.78</ele>
        <time>2025-05-03T20:25:23.850Z</time>
      </trkpt>
      <trkpt lat="45.94669" lon="4.73124">
        <ele>173.64</ele>
        <time>2025-05-03T20:25:26.191Z</time>
      </trkpt>
      <trkpt lat="45.94668" lon="4.73123">
        <ele>173.65</ele>
        <time>2025-05-03T20:25:28.532Z</time>
      </trkpt>
    </trkseg>
  </trk>
</gpx>